Wadesville, IN

11:20 AM CDT on May 27, 2015 (GMT -0500)
SR 165 | | Change Station
CLOSE
Current Station
Personal Weather Station
Location: Wadesville, IN
Elevation: 456 ft
Nearby Weather Stations

Elev 456 ft 38.11 °N, 87.79 °W | Updated 3 seconds ago

Thunderstorm
Thunderstorm
73.9 °F
Feels Like 74 °F
N
0.0
Wind Variable Wind from SE
Gusts 1.6 mph

Today
High -- | Low -- °F
--% Chance of Precip.
Yesterday
High -- | Low -- °F
Precip. -- in
5:32 AM 8:04 PM
Waxing Gibbous, 68% visible
Pressure 30.12 in
Visibility 6.0 miles
Clouds Few 2800 ft
Scattered Clouds 8000 ft
Overcast 10000 ft
Heat Index 74 °F
Dew Point 68 °F
Humidity 81%
Rainfall 0.00 in
Snow Depth Not available.
UV 3 out of 12
Pollen 8.00 out of 12
Air Quality Not available.
Flu Activity Sporadic
METAR KEVV 271554Z 30006KT 6SM VCTS -RA FEW028 SCT080 OVC100 22/17 A3012 RMK AO2 LTG DSNT E-SW RAB31 SLP197 P0000 T02170172

More Conditions Fewer Conditions

Pressure 30.12 in
Visibility 6.0 miles
Clouds Few 2800 ft
Scattered Clouds 8000 ft
Overcast 10000 ft
Heat Index 74 °F
Dew Point 68 °F
Humidity 81%
Rainfall 0.00 in
Snow Depth Not available.
UV 3 out of 12
Pollen 8.00 out of 12
Air Quality Not available.
Flu Activity Sporadic
METAR KEVV 271554Z 30006KT 6SM VCTS -RA FEW028 SCT080 OVC100 22/17 A3012 RMK AO2 LTG DSNT E-SW RAB31 SLP197 P0000 T02170172

More Conditions Fewer Conditions

10-Day Weather Forecast

Almanac

Astronomy

May. 27, 2015 Rise Set
Actual Time
Civil Twilight
Nautical Twilight
Astronomical Twilight
Moon
Length of Visible Light
Length of Day
Tomorrow will be .
, % of the Moon is Illuminated

Today's Extremes

State Highs State Lows

Community

WunderPhotos

Upload Photos

1,824,711 photos uploaded!

WunderBlogs® & News

Nearby

Air Quality

  Air Quality AQ Index Pollutant
Not available.

Snow Depth

Station Depth Elevation

Earthquake Activity

City Distance Mag. Time & Date
Minimum magnitude displayed is 2.5.

Coastal Water Temperatures

Place Temperature

Stations

Nearby Weather Stations

Station Location Temp. Windchill Dew Point Humidity Wind Precip. Elev Updated Type